createdAt,value
2018-06-19T00:00:17.178Z,99.90
2018-06-19T00:02:51.596Z,99.90
2018-06-19T00:05:29.635Z,99.90
2018-06-19T00:08:03.962Z,99.90
2018-06-19T00:13:12.679Z,99.90
2018-06-19T00:15:47.112Z,99.90
2018-06-19T00:18:27.625Z,99.90
2018-06-19T00:21:06.389Z,99.90
2018-06-19T00:23:40.688Z,99.90
2018-06-19T00:26:14.962Z,99.90
2018-06-19T00:28:49.428Z,99.90
2018-06-19T00:31:23.710Z,99.90
2018-06-19T00:33:57.998Z,99.90
2018-06-19T00:36:32.294Z,99.90
2018-06-19T00:39:08.661Z,99.90
2018-06-19T00:41:42.953Z,99.90
2018-06-19T00:44:17.320Z,99.90
2018-06-19T00:46:52.620Z,99.90
2018-06-19T00:49:27.046Z,99.90
2018-06-19T00:52:01.334Z,99.90
2018-06-19T00:54:35.609Z,99.90
2018-06-19T00:57:09.923Z,99.90
2018-06-19T00:59:44.238Z,99.90
2018-06-19T01:02:18.751Z,99.90
2018-06-19T01:04:53.179Z,99.90
2018-06-19T01:07:27.489Z,99.90
2018-06-19T01:10:01.755Z,99.90
2018-06-19T01:12:36.195Z,99.90
2018-06-19T01:15:10.546Z,99.90
2018-06-19T01:17:45.158Z,99.90
2018-06-19T01:20:19.495Z,99.90
2018-06-19T01:22:53.983Z,99.90
2018-06-19T01:25:28.254Z,99.90
2018-06-19T01:28:02.669Z,99.90
2018-06-19T01:30:36.963Z,99.90
2018-06-19T01:33:11.965Z,99.90
2018-06-19T01:35:46.466Z,99.90
2018-06-19T01:38:20.943Z,99.90
2018-06-19T01:40:55.357Z,99.90
2018-06-19T01:46:03.771Z,99.90
2018-06-19T01:48:38.202Z,99.90
2018-06-19T01:51:12.475Z,99.90
2018-06-19T01:53:46.855Z,99.90
2018-06-19T01:56:21.134Z,99.90
2018-06-19T01:58:55.535Z,99.90
2018-06-19T02:01:30.186Z,99.90
2018-06-19T02:04:04.607Z,99.90
2018-06-19T02:09:13.304Z,99.90
2018-06-19T02:11:47.858Z,99.90
2018-06-19T02:14:22.971Z,99.90
2018-06-19T02:16:57.312Z,99.90
2018-06-19T02:19:31.653Z,99.90
2018-06-19T02:22:06.039Z,99.90
2018-06-19T02:24:40.379Z,99.90
2018-06-19T02:27:14.726Z,99.90
2018-06-19T02:29:49.088Z,99.90
2018-06-19T02:32:23.432Z,99.90
2018-06-19T02:34:57.790Z,99.90
2018-06-19T02:37:32.058Z,99.90
2018-06-19T02:40:06.391Z,99.90
2018-06-19T02:42:40.721Z,99.90
2018-06-19T02:45:15.021Z,99.90
2018-06-19T02:47:49.283Z,99.90
2018-06-19T02:50:23.645Z,99.90
2018-06-19T02:55:31.974Z,99.90
2018-06-19T02:58:06.425Z,99.90
2018-06-19T03:00:40.750Z,99.90
2018-06-19T03:03:15.066Z,99.90
2018-06-19T03:05:49.399Z,99.90
2018-06-19T03:08:23.944Z,99.90
2018-06-19T03:13:32.503Z,99.90
2018-06-19T03:16:06.925Z,99.90
2018-06-19T03:23:49.795Z,99.90
2018-06-19T03:26:24.203Z,99.90
2018-06-19T03:31:32.693Z,99.90
2018-06-19T03:34:07.119Z,99.90
2018-06-19T03:36:41.593Z,99.90
2018-06-19T03:41:50.005Z,99.90
2018-06-19T03:44:24.311Z,99.90
2018-06-19T03:46:58.720Z,99.90
2018-06-19T03:54:41.509Z,99.90
2018-06-19T03:59:50.149Z,99.90
2018-06-19T04:02:24.518Z,99.90
2018-06-19T04:04:58.924Z,99.90
2018-06-19T04:07:33.256Z,99.90
2018-06-19T04:10:07.716Z,99.90
2018-06-19T04:12:42.172Z,99.90
2018-06-19T04:15:16.401Z,99.90
2018-06-19T04:17:50.725Z,99.90
2018-06-19T04:20:25.092Z,99.90
2018-06-19T04:22:59.403Z,99.90
2018-06-19T04:25:33.723Z,99.90
2018-06-19T04:28:08.153Z,99.90
2018-06-19T04:30:42.492Z,99.90
2018-06-19T04:33:16.822Z,99.90
2018-06-19T04:35:51.183Z,99.90
2018-06-19T04:38:25.471Z,99.90
2018-06-19T04:40:59.904Z,99.90
2018-06-19T04:43:34.550Z,99.90
2018-06-19T04:46:08.988Z,99.90
2018-06-19T04:48:43.377Z,99.90
2018-06-19T04:51:17.666Z,99.90
2018-06-19T04:53:52.030Z,99.90
2018-06-19T04:56:26.401Z,99.90
2018-06-19T05:01:34.779Z,99.90
2018-06-19T05:04:09.104Z,99.90
2018-06-19T05:06:43.478Z,99.90
2018-06-19T05:09:17.737Z,99.90
2018-06-19T05:14:26.466Z,99.90
2018-06-19T05:19:35.046Z,99.90
2018-06-19T05:22:09.482Z,99.90
2018-06-19T05:27:18.076Z,99.90
2018-06-19T05:29:52.469Z,99.90
2018-06-19T05:32:26.739Z,99.90
2018-06-19T05:35:01.230Z,99.90
2018-06-19T05:37:35.522Z,99.90
2018-06-19T05:40:09.872Z,99.90
2018-06-19T05:42:44.278Z,99.90
2018-06-19T05:47:52.686Z,99.90
2018-06-19T05:50:27.029Z,99.90
2018-06-19T05:53:01.309Z,99.90
2018-06-19T05:55:35.728Z,99.90
2018-06-19T06:00:44.306Z,99.90
2018-06-19T06:03:18.571Z,99.90
2018-06-19T06:05:53.202Z,99.90
2018-06-19T06:08:27.691Z,99.90
2018-06-19T06:11:02.147Z,99.90
2018-06-19T06:13:36.499Z,99.90
2018-06-19T06:16:10.755Z,99.90
2018-06-19T06:18:45.192Z,99.90
2018-06-19T06:21:19.495Z,99.90
2018-06-19T06:23:53.901Z,99.90
2018-06-19T06:26:28.218Z,99.90
2018-06-19T06:29:02.704Z,99.90
2018-06-19T06:31:37.224Z,99.90
2018-06-19T06:34:11.706Z,99.90
2018-06-19T06:36:46.836Z,99.90
2018-06-19T06:39:21.254Z,99.90
2018-06-19T06:41:55.503Z,99.90
2018-06-19T06:44:29.842Z,99.90
2018-06-19T06:47:04.292Z,99.90
2018-06-19T06:49:38.627Z,99.90
2018-06-19T06:52:13.410Z,99.90
2018-06-19T06:54:47.812Z,99.90
2018-06-19T06:57:22.180Z,99.90
2018-06-19T06:59:56.554Z,99.90
2018-06-19T07:02:31.023Z,99.90
2018-06-19T07:05:05.507Z,99.90
2018-06-19T07:07:39.810Z,99.90
2018-06-19T07:10:14.197Z,99.90
2018-06-19T07:12:48.551Z,99.90
2018-06-19T07:15:22.884Z,99.90
2018-06-19T07:17:57.332Z,99.90
2018-06-19T07:20:31.822Z,99.90
2018-06-19T07:28:14.510Z,99.90
2018-06-19T07:30:49.014Z,99.90
2018-06-19T07:33:23.495Z,99.90
2018-06-19T07:35:57.846Z,99.90
2018-06-19T07:38:32.138Z,99.90
2018-06-19T07:41:06.588Z,99.90
2018-06-19T07:43:40.878Z,99.90
2018-06-19T07:46:15.302Z,99.90
2018-06-19T07:48:49.660Z,99.90
2018-06-19T07:51:24.017Z,99.90
2018-06-19T07:53:58.367Z,99.90
2018-06-19T07:56:32.644Z,99.90
2018-06-19T07:59:06.974Z,99.90
2018-06-19T08:01:41.210Z,99.90
2018-06-19T08:04:15.468Z,99.90
2018-06-19T08:06:49.734Z,99.90
2018-06-19T08:09:24.150Z,99.90
2018-06-19T08:11:58.585Z,99.90
2018-06-19T08:14:32.889Z,99.90
2018-06-19T08:17:07.188Z,99.90
2018-06-19T08:19:41.612Z,99.90
2018-06-19T08:22:16.126Z,99.90
2018-06-19T08:24:50.595Z,99.90
2018-06-19T08:27:25.041Z,99.90
2018-06-19T08:29:59.362Z,99.90
2018-06-19T08:32:33.667Z,99.90
2018-06-19T08:35:08.047Z,99.90
2018-06-19T08:37:42.380Z,99.90
2018-06-19T08:40:16.800Z,99.90
2018-06-19T08:42:51.094Z,99.90
2018-06-19T08:45:25.421Z,99.90
2018-06-19T08:47:59.901Z,99.90
2018-06-19T08:53:08.292Z,99.20
2018-06-19T08:55:42.556Z,97.90
2018-06-19T08:58:16.861Z,98.90
2018-06-19T09:00:51.162Z,99.70
2018-06-19T09:03:25.428Z,99.70
2018-06-19T09:05:59.694Z,99.90
2018-06-19T09:08:34.028Z,99.90
2018-06-19T09:11:08.328Z,99.90
2018-06-19T09:13:42.732Z,99.90
2018-06-19T09:16:16.994Z,99.90
2018-06-19T09:18:51.485Z,99.60
2018-06-19T09:23:59.939Z,99.90
2018-06-19T09:26:34.196Z,99.20
2018-06-19T09:29:08.669Z,98.10
2018-06-19T09:31:43.099Z,98.60
2018-06-19T09:34:17.412Z,97.60
2018-06-19T09:39:25.951Z,98.40
2018-06-19T09:42:00.270Z,98.00
2018-06-19T09:44:34.580Z,96.40
2018-06-19T09:47:09.095Z,97.00
2018-06-19T09:49:44.060Z,96.60
2018-06-19T09:52:18.397Z,96.50
2018-06-19T09:54:52.833Z,96.50
2018-06-19T09:57:27.132Z,94.60
2018-06-19T10:00:01.416Z,95.20
2018-06-19T10:05:09.877Z,95.20
2018-06-19T10:07:44.190Z,94.20
2018-06-19T10:10:18.703Z,94.40
2018-06-19T10:15:27.449Z,94.70
2018-06-19T10:18:01.956Z,91.80
2018-06-19T10:23:10.496Z,93.10
2018-06-19T10:28:19.058Z,92.40
2018-06-19T10:33:27.432Z,91.60
2018-06-19T10:36:01.744Z,90.20
2018-06-19T10:38:36.134Z,91.80
2018-06-19T10:43:44.720Z,92.00
2018-06-19T10:48:53.653Z,91.40
2018-06-19T10:51:28.136Z,90.80
2018-06-19T10:54:02.460Z,90.70
2018-06-19T10:56:36.744Z,91.10
2018-06-19T10:59:11.153Z,91.20
2018-06-19T11:01:45.536Z,91.90
2018-06-19T11:04:19.781Z,92.50
2018-06-19T11:06:54.331Z,92.80
2018-06-19T11:12:02.815Z,92.30
2018-06-19T11:14:37.175Z,91.20
2018-06-19T11:17:11.572Z,92.00
2018-06-19T11:19:45.975Z,92.00
2018-06-19T11:22:20.320Z,90.90
2018-06-19T11:24:54.620Z,92.30
2018-06-19T11:27:29.061Z,90.70
2018-06-19T11:30:03.391Z,89.30
2018-06-19T11:32:37.699Z,90.40
2018-06-19T11:37:46.098Z,90.80
2018-06-19T11:40:20.419Z,89.00
2018-06-19T11:42:54.794Z,87.20
2018-06-19T11:45:29.142Z,85.80
2018-06-19T11:48:03.486Z,86.40
2018-06-19T11:50:37.937Z,88.90
2018-06-19T11:53:12.231Z,90.20
2018-06-19T11:55:46.565Z,86.80
2018-06-19T11:58:20.856Z,85.70
2018-06-19T12:03:29.387Z,87.00
2018-06-19T12:06:03.911Z,87.90
2018-06-19T12:08:38.254Z,88.20
2018-06-19T12:13:46.729Z,85.80
2018-06-19T12:16:21.089Z,85.40
2018-06-19T12:18:55.555Z,87.10
2018-06-19T12:21:30.007Z,84.20
2018-06-19T12:24:04.547Z,80.90
2018-06-19T12:26:38.843Z,79.90
2018-06-19T12:29:13.123Z,81.20
2018-06-19T12:31:47.593Z,83.70
2018-06-19T12:34:22.499Z,83.60
2018-06-19T12:36:56.762Z,82.60
2018-06-19T12:42:05.411Z,83.80
2018-06-19T12:44:39.850Z,84.30
2018-06-19T12:47:14.116Z,84.60
2018-06-19T12:50:28.194Z,84.40
2018-06-19T12:55:53.755Z,80.20
2018-06-19T12:58:28.235Z,79.20
2018-06-19T13:01:02.630Z,79.70
2018-06-19T13:04:47.119Z,78.40
2018-06-19T13:09:55.727Z,78.10
2018-06-19T13:12:41.493Z,80.70
2018-06-19T13:18:01.647Z,80.00
2018-06-19T13:20:47.543Z,78.60
2018-06-19T13:23:21.898Z,79.50
2018-06-19T13:25:56.174Z,81.20
2018-06-19T13:29:46.982Z,81.50
2018-06-19T13:32:21.435Z,82.50
2018-06-19T13:34:55.838Z,81.50
2018-06-19T13:37:30.152Z,80.50
2018-06-19T13:41:18.911Z,84.60
2018-06-19T13:44:06.643Z,81.80
2018-06-19T13:46:41.369Z,83.20
2018-06-19T13:49:15.782Z,81.60
2018-06-19T13:51:50.141Z,83.20
2018-06-19T13:54:24.433Z,78.10
2018-06-19T13:57:11.440Z,82.30
2018-06-19T13:59:45.726Z,76.60
2018-06-19T14:02:20.583Z,78.50
2018-06-19T14:15:40.938Z,75.60
2018-06-19T14:18:16.143Z,79.30
2018-06-19T14:23:24.670Z,79.50
2018-06-19T14:25:59.015Z,75.50
2018-06-19T14:28:33.433Z,75.20
2018-06-19T14:33:41.834Z,73.40
2018-06-19T14:38:50.491Z,73.20
2018-06-19T14:41:25.126Z,74.10
2018-06-19T14:43:59.644Z,73.90
2018-06-19T14:46:33.952Z,70.70
2018-06-19T14:49:08.310Z,74.20
2018-06-19T14:51:42.600Z,75.10
2018-06-19T14:54:17.246Z,73.30
2018-06-19T14:56:51.642Z,73.00
2018-06-19T15:02:00.303Z,73.20
2018-06-19T15:04:34.624Z,73.00
2018-06-19T15:07:09.074Z,73.80
2018-06-19T15:09:43.587Z,73.70
2018-06-19T15:12:17.993Z,74.60
2018-06-19T15:17:26.508Z,71.70
2018-06-19T15:20:00.916Z,68.70
2018-06-19T15:27:43.574Z,68.10
2018-06-19T15:35:26.298Z,70.30
2018-06-19T15:38:01.123Z,69.40
2018-06-19T15:40:35.378Z,68.00
2018-06-19T15:43:09.748Z,67.20
2018-06-19T15:45:44.115Z,67.60
2018-06-19T15:48:18.587Z,70.30
2018-06-19T15:50:53.115Z,67.70
2018-06-19T15:53:27.425Z,65.00
2018-06-19T15:56:01.959Z,67.00
2018-06-19T16:01:11.041Z,63.30
2018-06-19T16:03:45.294Z,64.60
2018-06-19T16:06:19.730Z,65.10
2018-06-19T16:08:53.993Z,64.80
2018-06-19T16:11:28.356Z,63.50
2018-06-19T16:16:37.060Z,62.00
2018-06-19T16:19:11.448Z,60.80
2018-06-19T16:21:45.768Z,56.60
2018-06-19T16:24:20.132Z,56.30
2018-06-19T16:29:28.704Z,53.50
2018-06-19T16:32:03.140Z,53.50
2018-06-19T16:34:37.542Z,53.80
2018-06-19T16:37:11.926Z,52.00
2018-06-19T16:39:46.364Z,51.10
2018-06-19T16:44:54.932Z,50.60
2018-06-19T16:57:46.991Z,49.40
2018-06-19T17:00:21.793Z,47.50
2018-06-19T17:13:13.462Z,47.60
2018-06-19T17:15:47.982Z,46.40
2018-06-19T17:18:22.517Z,45.60
2018-06-19T17:20:56.805Z,45.80
2018-06-19T17:23:31.131Z,46.70
2018-06-19T17:26:05.847Z,46.30
2018-06-19T17:31:14.493Z,46.20
2018-06-19T17:33:48.894Z,46.40
2018-06-19T17:36:23.202Z,45.90
2018-06-19T17:38:57.700Z,44.40
2018-06-19T17:41:32.486Z,43.70
2018-06-19T17:44:07.929Z,41.70
2018-06-19T17:46:42.261Z,41.90
2018-06-19T17:49:16.675Z,42.20
2018-06-19T17:54:25.177Z,42.20
2018-06-19T17:56:59.527Z,42.90
2018-06-19T17:59:34.045Z,44.50
2018-06-19T18:02:08.821Z,45.10
2018-06-19T18:04:43.143Z,46.90
2018-06-19T18:07:17.498Z,49.10
2018-06-19T18:09:51.789Z,51.20
2018-06-19T18:12:26.210Z,52.80
2018-06-19T18:15:00.667Z,54.30
2018-06-19T18:17:35.081Z,55.60
2018-06-19T18:20:09.702Z,56.30
2018-06-19T18:22:44.028Z,56.90
2018-06-19T18:25:18.340Z,57.10
2018-06-19T18:33:01.150Z,59.20
2018-06-19T18:35:35.510Z,59.20
2018-06-19T18:38:09.831Z,59.90
2018-06-19T18:40:44.151Z,59.60
2018-06-19T18:43:18.448Z,60.30
2018-06-19T18:51:01.102Z,61.20
2018-06-19T18:53:35.646Z,62.10
2018-06-19T18:56:10.060Z,63.40
2018-06-19T18:58:44.533Z,64.80
2018-06-19T19:01:18.999Z,65.00
2018-06-19T19:03:53.338Z,65.20
2018-06-19T19:06:27.898Z,66.30
2018-06-19T19:09:02.361Z,67.80
2018-06-19T19:11:36.934Z,68.40
2018-06-19T19:19:25.570Z,70.10
2018-06-19T19:21:59.961Z,70.70
2018-06-19T19:24:34.387Z,71.50
2018-06-19T19:29:50.021Z,74.80
2018-06-19T19:32:24.384Z,75.70
2018-06-19T19:34:58.759Z,77.50
2018-06-19T19:37:38.439Z,79.20
2018-06-19T19:42:46.876Z,82.10
2018-06-19T19:45:21.275Z,82.60
2018-06-19T19:48:01.219Z,83.10
2018-06-19T19:50:35.491Z,84.40
2018-06-19T19:53:09.800Z,86.20
2018-06-19T19:55:49.702Z,87.80
2018-06-19T20:01:03.805Z,89.50
2018-06-19T20:06:12.451Z,91.20
2018-06-19T20:08:47.507Z,91.30
2018-06-19T20:11:21.956Z,91.60
2018-06-19T20:13:56.216Z,92.10
2018-06-19T20:16:30.551Z,92.10
2018-06-19T20:19:04.852Z,92.70
2018-06-19T20:21:39.292Z,93.50
2018-06-19T20:24:13.788Z,94.00
2018-06-19T20:26:48.308Z,94.40
2018-06-19T20:29:22.818Z,95.40
2018-06-19T20:31:57.230Z,98.00
2018-06-19T20:34:31.542Z,99.90
2018-06-19T20:37:06.179Z,99.90
2018-06-19T20:39:40.714Z,99.90
2018-06-19T20:42:15.113Z,99.90
2018-06-19T20:44:49.420Z,99.90
2018-06-19T20:47:23.774Z,99.90
2018-06-19T20:49:58.174Z,99.90
2018-06-19T20:52:32.626Z,99.90
2018-06-19T20:55:06.954Z,99.90
2018-06-19T20:57:41.273Z,99.90
2018-06-19T21:00:15.641Z,99.90
2018-06-19T21:02:50.068Z,99.90
2018-06-19T21:05:24.398Z,99.90
2018-06-19T21:07:58.699Z,99.90
2018-06-19T21:10:33.138Z,99.90
2018-06-19T21:13:07.661Z,99.90
2018-06-19T21:15:42.667Z,99.90
2018-06-19T21:20:51.538Z,99.90
2018-06-19T21:23:26.364Z,99.90
2018-06-19T21:26:00.864Z,99.90
2018-06-19T21:28:35.358Z,99.90
2018-06-19T21:31:09.841Z,99.90
2018-06-19T21:33:44.187Z,99.90
2018-06-19T21:41:27.010Z,99.90
2018-06-19T21:44:01.451Z,99.90
2018-06-19T21:46:35.744Z,99.90
2018-06-19T21:49:10.089Z,99.90
2018-06-19T21:54:18.598Z,99.90
2018-06-19T21:56:53.028Z,99.90
2018-06-19T21:59:27.290Z,99.90
2018-06-19T22:02:02.601Z,99.90
2018-06-19T22:04:36.964Z,99.90
2018-06-19T22:07:11.330Z,99.90
2018-06-19T22:09:45.645Z,99.90
2018-06-19T22:17:28.519Z,99.90
2018-06-19T22:20:02.891Z,99.90
2018-06-19T22:22:37.251Z,99.90
2018-06-19T22:25:12.181Z,99.90
2018-06-19T22:27:46.489Z,99.90
2018-06-19T22:30:20.804Z,99.90
2018-06-19T22:32:55.053Z,99.90
2018-06-19T22:35:29.484Z,99.90
2018-06-19T22:38:03.843Z,99.90
2018-06-19T22:40:38.259Z,99.90
2018-06-19T22:45:46.800Z,99.90
2018-06-19T22:48:21.304Z,99.90
2018-06-19T22:50:55.592Z,99.90
2018-06-19T22:53:30.139Z,99.90
2018-06-19T22:56:04.481Z,99.90
2018-06-19T22:58:38.813Z,99.90
2018-06-19T23:01:13.110Z,99.90
2018-06-19T23:03:47.476Z,99.90
2018-06-19T23:08:55.964Z,99.90
2018-06-19T23:11:30.370Z,99.90
2018-06-19T23:14:04.719Z,99.90
2018-06-19T23:16:39.108Z,99.90
2018-06-19T23:21:47.766Z,99.90
2018-06-19T23:24:22.172Z,99.90
2018-06-19T23:26:56.531Z,99.90
2018-06-19T23:29:30.804Z,99.90
2018-06-19T23:32:05.291Z,99.90
2018-06-19T23:34:39.831Z,99.90
2018-06-19T23:39:48.372Z,99.90
2018-06-19T23:42:22.690Z,99.90
2018-06-19T23:44:57.196Z,99.90
2018-06-19T23:47:31.575Z,99.90
2018-06-19T23:50:06.093Z,99.90
2018-06-19T23:52:40.382Z,99.90
2018-06-19T23:55:14.806Z,99.90
2018-06-19T23:57:49.827Z,99.90
